createdAt,value
2022-07-31T00:02:09.828Z,1.60
2022-07-31T00:04:37.824Z,1.70
2022-07-31T00:07:06.526Z,1.23
2022-07-31T00:09:52.506Z,1.75
2022-07-31T00:12:23.563Z,1.70
2022-07-31T00:14:51.933Z,1.60
2022-07-31T00:17:20.466Z,1.70
2022-07-31T00:19:48.810Z,1.60
2022-07-31T00:22:16.563Z,1.30
2022-07-31T00:24:44.700Z,1.55
2022-07-31T00:27:12.885Z,1.75
2022-07-31T00:29:40.689Z,1.80
2022-07-31T00:32:08.712Z,1.45
2022-07-31T00:34:36.469Z,1.65
2022-07-31T00:37:05.404Z,1.60
2022-07-31T00:39:33.754Z,1.58
2022-07-31T00:42:01.716Z,1.90
2022-07-31T00:44:29.821Z,1.33
2022-07-31T00:47:00.704Z,1.65
2022-07-31T00:49:37.517Z,1.58
2022-07-31T00:52:06.637Z,1.65
2022-07-31T00:54:35.934Z,1.85
2022-07-31T00:57:04.262Z,1.48
2022-07-31T00:59:33.335Z,1.70
2022-07-31T01:02:01.271Z,1.80
2022-07-31T01:04:31.109Z,1.25
2022-07-31T01:07:01.475Z,1.67
2022-07-31T01:09:30.503Z,1.65
2022-07-31T01:12:03.041Z,2.10
2022-07-31T01:14:39.278Z,1.92
2022-07-31T01:17:09.996Z,1.55
2022-07-31T01:19:47.731Z,1.83
2022-07-31T01:22:32.999Z,1.25
2022-07-31T01:25:27.841Z,1.00
2022-07-31T01:28:15.212Z,1.60
2022-07-31T01:31:27.029Z,1.63
2022-07-31T01:34:16.410Z,1.58
2022-07-31T01:36:52.301Z,1.38
2022-07-31T01:39:21.579Z,2.17
2022-07-31T01:41:52.263Z,1.50
2022-07-31T01:44:24.021Z,1.35
2022-07-31T01:46:53.641Z,1.30
2022-07-31T01:49:22.838Z,1.45
2022-07-31T01:51:51.093Z,1.60
2022-07-31T01:54:23.144Z,2.17
2022-07-31T01:56:55.120Z,1.38
2022-07-31T01:59:24.631Z,1.85
2022-07-31T02:02:10.170Z,1.58
2022-07-31T02:04:39.801Z,1.70
2022-07-31T02:09:52.298Z,1.42
2022-07-31T02:12:33.333Z,1.40
2022-07-31T02:15:06.441Z,1.70
2022-07-31T02:17:37.261Z,2.20
2022-07-31T02:20:25.626Z,1.75
2022-07-31T02:22:57.376Z,1.75
2022-07-31T02:25:26.832Z,1.95
2022-07-31T02:27:59.193Z,1.95
2022-07-31T02:30:38.978Z,1.85
2022-07-31T02:33:19.091Z,1.75
2022-07-31T02:35:54.036Z,1.52
2022-07-31T02:38:26.311Z,2.38
2022-07-31T02:40:58.870Z,1.83
2022-07-31T02:43:29.730Z,1.80
2022-07-31T02:45:59.778Z,1.38
2022-07-31T02:48:29.375Z,1.75
2022-07-31T02:51:02.243Z,1.98
2022-07-31T02:53:31.483Z,1.85
2022-07-31T02:56:05.320Z,1.60
2022-07-31T02:58:42.119Z,1.60
2022-07-31T03:01:17.683Z,1.80
2022-07-31T03:03:45.953Z,1.70
2022-07-31T03:06:14.519Z,1.77
2022-07-31T03:08:43.192Z,1.70
2022-07-31T03:11:13.876Z,2.05
2022-07-31T03:13:43.727Z,1.58
2022-07-31T03:16:12.722Z,1.60
2022-07-31T03:18:41.320Z,1.80
2022-07-31T03:21:11.208Z,1.60
2022-07-31T03:23:39.788Z,1.63
2022-07-31T03:26:17.476Z,1.42
2022-07-31T03:28:45.761Z,2.17
2022-07-31T03:31:14.187Z,1.83
2022-07-31T03:33:42.921Z,1.88
2022-07-31T03:36:11.142Z,1.60
2022-07-31T03:38:42.666Z,2.03
2022-07-31T03:41:25.249Z,1.73
2022-07-31T03:43:54.484Z,1.58
2022-07-31T03:46:23.804Z,1.67
2022-07-31T03:48:53.126Z,1.55
2022-07-31T03:51:22.452Z,1.55
2022-07-31T03:53:51.731Z,1.77
2022-07-31T03:56:46.756Z,1.35
2022-07-31T03:59:19.709Z,1.70
2022-07-31T04:01:56.631Z,1.17
2022-07-31T04:04:59.882Z,1.83
2022-07-31T04:07:28.493Z,1.45
2022-07-31T04:09:56.422Z,2.15
2022-07-31T04:12:24.379Z,1.15
2022-07-31T04:14:52.957Z,1.23
2022-07-31T04:17:20.843Z,1.92
2022-07-31T04:19:49.630Z,1.55
2022-07-31T04:22:17.602Z,1.83
2022-07-31T04:24:45.879Z,1.50
2022-07-31T04:27:48.772Z,1.63
2022-07-31T04:30:18.192Z,1.88
2022-07-31T04:32:48.067Z,1.90
2022-07-31T04:35:22.437Z,1.50
2022-07-31T04:37:50.550Z,1.75
2022-07-31T04:40:20.247Z,1.27
2022-07-31T04:42:48.000Z,1.50
2022-07-31T04:45:16.169Z,1.38
2022-07-31T04:47:44.016Z,1.65
2022-07-31T04:50:12.280Z,1.65
2022-07-31T04:52:55.537Z,1.80
2022-07-31T04:55:24.947Z,1.70
2022-07-31T04:57:53.522Z,1.77
2022-07-31T05:00:22.005Z,4.22
2022-07-31T05:02:50.653Z,1.60
2022-07-31T05:05:18.529Z,9.10
2022-07-31T05:07:47.716Z,5.43
2022-07-31T05:10:38.516Z,8.50
2022-07-31T05:13:06.955Z,1.85
2022-07-31T05:15:35.661Z,1.23
2022-07-31T05:18:03.682Z,1.10
2022-07-31T05:20:52.513Z,1.40
2022-07-31T05:23:51.047Z,1.40
2022-07-31T05:26:29.227Z,1.30
2022-07-31T05:28:59.865Z,1.55
2022-07-31T05:31:28.305Z,1.63
2022-07-31T05:33:59.215Z,1.55
2022-07-31T05:36:28.018Z,1.50
2022-07-31T05:38:55.913Z,1.42
2022-07-31T05:41:42.235Z,1.48
2022-07-31T05:44:28.498Z,1.30
2022-07-31T05:49:26.811Z,1.30
2022-07-31T05:51:56.468Z,1.02
2022-07-31T05:54:24.809Z,1.40
2022-07-31T05:57:11.646Z,1.08
2022-07-31T05:59:59.553Z,1.40
2022-07-31T06:02:39.898Z,1.73
2022-07-31T06:05:29.943Z,1.85
2022-07-31T06:08:01.226Z,1.42
2022-07-31T06:13:00.929Z,1.60
2022-07-31T06:15:32.010Z,1.63
2022-07-31T06:18:02.922Z,1.90
2022-07-31T06:20:31.480Z,2.20
2022-07-31T06:23:00.682Z,2.00
2022-07-31T06:25:38.945Z,2.72
2022-07-31T06:28:10.385Z,1.90
2022-07-31T06:30:40.584Z,1.95
2022-07-31T06:33:08.802Z,1.58
2022-07-31T06:35:44.584Z,1.70
2022-07-31T06:38:33.537Z,1.38
2022-07-31T06:41:40.644Z,1.50
2022-07-31T06:44:27.048Z,1.67
2022-07-31T06:47:16.058Z,1.30
2022-07-31T06:50:03.842Z,1.95
2022-07-31T06:52:38.548Z,1.90
2022-07-31T06:55:07.939Z,2.22
2022-07-31T06:57:37.793Z,2.00
2022-07-31T07:00:15.128Z,1.98
2022-07-31T07:02:49.899Z,1.73
2022-07-31T07:05:18.132Z,2.00
2022-07-31T07:07:49.657Z,1.75
2022-07-31T07:10:17.691Z,2.65
2022-07-31T07:13:00.601Z,1.92
2022-07-31T07:15:33.576Z,1.80
2022-07-31T07:18:01.787Z,2.45
2022-07-31T07:21:01.530Z,1.83
2022-07-31T07:23:29.379Z,2.00
2022-07-31T07:26:15.689Z,1.98
2022-07-31T07:28:44.115Z,2.30
2022-07-31T07:31:12.267Z,2.22
2022-07-31T07:33:42.680Z,2.80
2022-07-31T07:36:31.432Z,2.45
2022-07-31T07:39:04.270Z,2.83
2022-07-31T07:41:34.296Z,2.22
2022-07-31T07:44:02.592Z,2.90
2022-07-31T07:46:31.528Z,2.00
2022-07-31T07:49:04.538Z,1.63
2022-07-31T07:51:59.458Z,2.05
2022-07-31T07:54:33.904Z,1.85
2022-07-31T07:57:21.577Z,2.30
2022-07-31T08:00:10.988Z,1.90
2022-07-31T08:03:46.450Z,2.10
2022-07-31T08:05:38.319Z,2.20
2022-07-31T08:08:07.060Z,1.92
2022-07-31T08:10:56.398Z,2.00
2022-07-31T08:13:40.809Z,2.45
2022-07-31T08:16:23.894Z,2.42
2022-07-31T08:18:55.799Z,2.00
2022-07-31T08:21:24.502Z,2.10
2022-07-31T08:23:52.911Z,2.08
2022-07-31T08:26:21.419Z,1.63
2022-07-31T08:28:51.225Z,1.35
2022-07-31T08:31:24.043Z,1.85
2022-07-31T08:34:30.601Z,1.88
2022-07-31T08:38:01.602Z,1.60
2022-07-31T08:39:52.566Z,1.80
2022-07-31T08:42:20.911Z,1.88
2022-07-31T08:44:49.045Z,1.50
2022-07-31T08:47:20.005Z,1.52
2022-07-31T08:49:50.638Z,1.50
2022-07-31T08:52:25.206Z,1.65
2022-07-31T08:55:54.769Z,1.42
2022-07-31T08:58:07.922Z,1.85
2022-07-31T09:00:36.085Z,2.13
2022-07-31T09:03:05.051Z,1.50
2022-07-31T09:05:45.247Z,1.73
2022-07-31T09:08:16.262Z,1.85
2022-07-31T09:10:50.238Z,1.55
2022-07-31T09:13:20.045Z,1.48
2022-07-31T09:15:52.699Z,1.63
2022-07-31T09:18:24.857Z,1.67
2022-07-31T09:21:06.708Z,2.40
2022-07-31T09:23:46.369Z,6.03
2022-07-31T09:26:15.560Z,1.73
2022-07-31T09:28:46.485Z,2.00
2022-07-31T09:31:15.540Z,1.73
2022-07-31T09:34:00.569Z,1.42
2022-07-31T09:36:34.972Z,1.33
2022-07-31T09:39:27.871Z,1.48
2022-07-31T09:42:16.753Z,1.70
2022-07-31T09:45:24.520Z,1.70
2022-07-31T09:48:08.258Z,1.80
2022-07-31T09:50:36.950Z,1.83
2022-07-31T09:53:06.702Z,1.30
2022-07-31T09:55:36.686Z,1.70
2022-07-31T09:58:04.837Z,1.52
2022-07-31T10:00:39.068Z,1.65
2022-07-31T10:03:08.331Z,1.10
2022-07-31T10:05:38.312Z,1.20
2022-07-31T10:08:07.846Z,1.25
2022-07-31T10:10:55.748Z,1.40
2022-07-31T10:13:46.344Z,1.10
2022-07-31T10:16:15.197Z,1.42
2022-07-31T10:18:57.107Z,1.58
2022-07-31T10:21:54.794Z,1.00
2022-07-31T10:24:31.603Z,1.15
2022-07-31T10:29:41.731Z,1.08
2022-07-31T10:32:10.662Z,1.00
2022-07-31T10:34:49.466Z,0.77
2022-07-31T10:37:53.376Z,1.27
2022-07-31T10:40:54.959Z,0.90
2022-07-31T10:43:27.083Z,1.10
2022-07-31T10:46:09.615Z,1.20
2022-07-31T10:49:08.739Z,0.82
2022-07-31T10:51:55.413Z,0.80
2022-07-31T10:54:58.380Z,1.20
2022-07-31T10:57:56.236Z,1.15
2022-07-31T11:00:39.561Z,0.88
2022-07-31T11:03:25.958Z,1.02
2022-07-31T11:06:42.925Z,0.90
2022-07-31T11:09:31.644Z,1.17
2022-07-31T11:12:19.789Z,1.38
2022-07-31T11:15:24.698Z,1.00
2022-07-31T11:18:26.732Z,1.65
2022-07-31T11:21:38.087Z,1.65
2022-07-31T11:24:03.038Z,1.48
2022-07-31T11:26:41.648Z,1.17
2022-07-31T11:30:01.085Z,1.48
2022-07-31T11:32:15.103Z,1.23
2022-07-31T11:34:54.042Z,1.25
2022-07-31T11:37:41.168Z,1.10
2022-07-31T11:40:14.816Z,1.08
2022-07-31T11:42:46.347Z,1.20
2022-07-31T11:45:17.764Z,1.10
2022-07-31T11:48:11.263Z,1.00
2022-07-31T11:50:43.982Z,1.10
2022-07-31T11:53:13.052Z,1.50
2022-07-31T11:55:47.974Z,1.10
2022-07-31T11:58:18.003Z,0.98
2022-07-31T12:01:06.593Z,1.00
2022-07-31T12:03:37.951Z,1.70
2022-07-31T12:06:08.426Z,1.08
2022-07-31T12:08:38.784Z,1.10
2022-07-31T12:11:09.535Z,1.15
2022-07-31T12:13:39.155Z,1.13
2022-07-31T12:16:09.804Z,1.05
2022-07-31T12:18:51.023Z,1.13
2022-07-31T12:21:20.616Z,1.35
2022-07-31T12:23:53.227Z,1.20
2022-07-31T12:26:33.582Z,1.00
2022-07-31T12:29:04.643Z,0.80
2022-07-31T12:31:48.212Z,1.20
2022-07-31T12:34:28.161Z,1.08
2022-07-31T12:36:59.937Z,1.55
2022-07-31T12:39:47.585Z,1.00
2022-07-31T12:42:30.834Z,0.70
2022-07-31T12:45:19.606Z,0.98
2022-07-31T12:47:53.612Z,1.10
2022-07-31T12:50:22.981Z,1.40
2022-07-31T12:52:51.427Z,0.93
2022-07-31T12:55:20.071Z,1.00
2022-07-31T12:57:51.421Z,1.05
2022-07-31T13:00:23.543Z,1.20
2022-07-31T13:02:53.609Z,1.00
2022-07-31T13:05:23.138Z,1.23
2022-07-31T13:07:51.913Z,0.80
2022-07-31T13:10:24.721Z,1.02
2022-07-31T13:12:53.427Z,1.15
2022-07-31T13:15:29.665Z,0.68
2022-07-31T13:17:59.318Z,1.00
2022-07-31T13:20:27.368Z,1.10
2022-07-31T13:22:55.576Z,1.00
2022-07-31T13:25:23.906Z,0.90
2022-07-31T13:27:51.824Z,0.90
2022-07-31T13:30:19.897Z,1.23
2022-07-31T13:32:47.587Z,1.20
2022-07-31T13:35:24.029Z,0.77
2022-07-31T13:37:56.016Z,0.80
2022-07-31T13:40:43.231Z,0.93
2022-07-31T13:43:11.810Z,0.98
2022-07-31T13:45:40.372Z,0.90
2022-07-31T13:48:10.096Z,1.00
2022-07-31T13:50:42.127Z,0.70
2022-07-31T13:53:10.267Z,0.80
2022-07-31T13:55:38.692Z,0.70
2022-07-31T13:58:07.386Z,1.30
2022-07-31T14:00:35.855Z,0.52
2022-07-31T14:03:03.776Z,0.65
2022-07-31T14:05:32.624Z,1.15
2022-07-31T14:08:32.873Z,0.82
2022-07-31T14:10:57.486Z,0.70
2022-07-31T14:13:25.966Z,0.73
2022-07-31T14:15:54.252Z,1.00
2022-07-31T14:18:23.505Z,0.70
2022-07-31T14:20:52.075Z,0.95
2022-07-31T14:23:19.891Z,0.57
2022-07-31T14:25:47.944Z,0.80
2022-07-31T14:28:17.052Z,0.95
2022-07-31T14:30:46.586Z,0.55
2022-07-31T14:33:17.794Z,0.60
2022-07-31T14:35:46.166Z,0.73
2022-07-31T14:38:26.937Z,0.60
2022-07-31T14:40:56.270Z,0.50
2022-07-31T14:43:24.371Z,0.90
2022-07-31T14:45:52.605Z,0.70
2022-07-31T14:48:22.029Z,0.65
2022-07-31T14:50:49.781Z,0.50
2022-07-31T14:53:18.129Z,0.50
2022-07-31T14:55:45.950Z,0.80
2022-07-31T14:58:13.819Z,0.90
2022-07-31T15:00:42.466Z,0.90
2022-07-31T15:03:10.270Z,0.82
2022-07-31T15:06:40.121Z,0.70
2022-07-31T15:08:27.746Z,0.90
2022-07-31T15:10:55.577Z,0.98
2022-07-31T15:13:24.303Z,0.70
2022-07-31T15:15:52.158Z,0.77
2022-07-31T15:18:20.334Z,0.77
2022-07-31T15:20:52.885Z,0.90
2022-07-31T15:23:21.674Z,0.60
2022-07-31T15:25:50.164Z,0.70
2022-07-31T15:28:17.915Z,0.75
2022-07-31T15:30:46.018Z,0.70
2022-07-31T15:33:14.768Z,1.13
2022-07-31T15:35:42.873Z,0.77
2022-07-31T15:38:11.747Z,0.75
2022-07-31T15:40:39.692Z,0.90
2022-07-31T15:43:07.754Z,0.93
2022-07-31T15:45:35.546Z,0.80
2022-07-31T15:48:06.976Z,1.00
2022-07-31T15:50:38.235Z,0.70
2022-07-31T15:53:06.564Z,1.00
2022-07-31T15:55:34.535Z,0.88
2022-07-31T15:58:02.767Z,0.50
2022-07-31T16:00:30.551Z,0.60
2022-07-31T16:02:59.674Z,0.68
2022-07-31T16:05:36.768Z,1.05
2022-07-31T16:08:29.639Z,0.77
2022-07-31T16:10:56.019Z,1.13
2022-07-31T16:13:25.341Z,0.73
2022-07-31T16:15:53.295Z,0.80
2022-07-31T16:18:21.839Z,0.68
2022-07-31T16:20:50.123Z,0.85
2022-07-31T16:23:17.936Z,0.80
2022-07-31T16:25:45.817Z,0.95
2022-07-31T16:28:15.067Z,1.27
2022-07-31T16:30:45.659Z,0.98
2022-07-31T16:33:13.821Z,0.95
2022-07-31T16:35:41.956Z,0.70
2022-07-31T16:38:09.855Z,0.68
2022-07-31T16:40:37.668Z,0.70
2022-07-31T16:43:49.694Z,1.00
2022-07-31T16:45:56.039Z,0.88
2022-07-31T16:48:24.375Z,0.70
2022-07-31T16:50:53.481Z,0.80
2022-07-31T16:54:11.198Z,0.98
2022-07-31T16:56:14.485Z,0.63
2022-07-31T16:58:43.782Z,0.90
2022-07-31T17:01:53.752Z,1.33
2022-07-31T17:04:03.929Z,1.42
2022-07-31T17:06:37.906Z,1.23
2022-07-31T17:09:16.985Z,1.10
2022-07-31T17:11:48.460Z,0.80
2022-07-31T17:14:18.354Z,1.02
2022-07-31T17:16:48.891Z,0.90
2022-07-31T17:19:41.649Z,0.80
2022-07-31T17:22:07.596Z,0.73
2022-07-31T17:24:38.047Z,0.90
2022-07-31T17:27:08.535Z,1.10
2022-07-31T17:29:37.973Z,1.05
2022-07-31T17:32:05.927Z,1.05
2022-07-31T17:34:35.673Z,0.98
2022-07-31T17:37:04.944Z,1.13
2022-07-31T17:39:33.214Z,1.00
2022-07-31T17:42:01.444Z,1.00
2022-07-31T17:44:30.977Z,1.23
2022-07-31T17:46:59.742Z,1.10
2022-07-31T17:52:00.462Z,1.10
2022-07-31T17:54:30.710Z,1.00
2022-07-31T17:56:59.862Z,1.15
2022-07-31T17:59:28.627Z,1.15
2022-07-31T18:02:00.445Z,1.20
2022-07-31T18:04:31.782Z,1.07
2022-07-31T18:07:01.473Z,1.25
2022-07-31T18:09:29.278Z,1.55
2022-07-31T18:11:58.069Z,1.63
2022-07-31T18:14:26.298Z,1.35
2022-07-31T18:16:55.104Z,1.42
2022-07-31T18:19:23.857Z,1.70
2022-07-31T18:21:53.460Z,1.42
2022-07-31T18:24:22.659Z,1.20
2022-07-31T18:26:51.860Z,1.52
2022-07-31T18:29:20.620Z,1.27
2022-07-31T18:31:49.115Z,1.60
2022-07-31T18:34:17.619Z,1.33
2022-07-31T18:36:45.997Z,1.38
2022-07-31T18:39:13.668Z,1.42
2022-07-31T18:41:48.316Z,1.60
2022-07-31T18:44:17.097Z,1.50
2022-07-31T18:46:48.269Z,1.50
2022-07-31T18:50:59.944Z,2.33
2022-07-31T18:52:05.615Z,1.02
2022-07-31T18:54:33.715Z,1.23
2022-07-31T18:57:04.269Z,1.17
2022-07-31T18:59:32.307Z,1.65
2022-07-31T19:02:00.754Z,1.48
2022-07-31T19:04:29.107Z,1.90
2022-07-31T19:06:56.873Z,1.42
2022-07-31T19:09:25.412Z,1.58
2022-07-31T19:11:58.556Z,1.73
2022-07-31T19:14:31.479Z,1.50
2022-07-31T19:17:00.660Z,1.20
2022-07-31T19:19:30.403Z,1.38
2022-07-31T19:22:16.770Z,1.30
2022-07-31T19:24:44.993Z,2.08
2022-07-31T19:27:13.269Z,1.98
2022-07-31T19:29:41.608Z,2.25
2022-07-31T19:32:09.454Z,1.77
2022-07-31T19:34:37.908Z,1.58
2022-07-31T19:37:05.908Z,1.50
2022-07-31T19:39:38.301Z,1.42
2022-07-31T19:42:11.620Z,1.23
2022-07-31T19:44:40.927Z,1.50
2022-07-31T19:47:09.063Z,1.77
2022-07-31T19:49:38.614Z,1.63
2022-07-31T19:52:08.845Z,1.38
2022-07-31T19:54:37.922Z,3.38
2022-07-31T19:57:06.382Z,1.85
2022-07-31T19:59:34.157Z,5.20
2022-07-31T20:02:02.050Z,3.75
2022-07-31T20:04:30.141Z,3.60
2022-07-31T20:06:58.299Z,1.80
2022-07-31T20:09:26.223Z,2.75
2022-07-31T20:11:54.673Z,3.88
2022-07-31T20:14:23.635Z,2.53
2022-07-31T20:16:51.394Z,2.42
2022-07-31T20:19:19.624Z,18.63
2022-07-31T20:21:47.371Z,3.03
2022-07-31T20:24:17.777Z,2.92
2022-07-31T20:26:46.015Z,3.97
2022-07-31T20:29:14.252Z,8.98
2022-07-31T20:31:42.300Z,4.10
2022-07-31T20:34:10.039Z,7.82
2022-07-31T20:36:39.579Z,4.03
2022-07-31T20:39:07.789Z,2.10
2022-07-31T20:41:36.548Z,2.47
2022-07-31T20:44:04.475Z,4.55
2022-07-31T20:46:33.198Z,3.45
2022-07-31T20:49:01.038Z,2.30
2022-07-31T20:51:28.839Z,2.97
2022-07-31T20:53:56.791Z,2.35
2022-07-31T20:56:25.030Z,2.53
2022-07-31T20:58:53.602Z,5.75
2022-07-31T21:01:22.076Z,2.47
2022-07-31T21:03:49.985Z,2.10
2022-07-31T21:06:19.288Z,2.28
2022-07-31T21:08:47.786Z,3.38
2022-07-31T21:11:16.206Z,2.67
2022-07-31T21:13:45.402Z,2.00
2022-07-31T21:16:13.861Z,2.20
2022-07-31T21:18:43.443Z,4.13
2022-07-31T21:21:12.382Z,6.60
2022-07-31T21:23:40.132Z,3.58
2022-07-31T21:26:08.759Z,21.48
2022-07-31T21:28:37.001Z,14.02
2022-07-31T21:31:05.448Z,11.27
2022-07-31T21:33:33.972Z,8.95
2022-07-31T21:36:02.478Z,6.72
2022-07-31T21:38:30.872Z,12.70
2022-07-31T21:40:58.837Z,6.95
2022-07-31T21:43:30.495Z,7.35
2022-07-31T21:46:09.267Z,8.95
2022-07-31T21:48:39.116Z,6.05
2022-07-31T21:51:07.378Z,9.68
2022-07-31T21:53:35.757Z,2.85
2022-07-31T21:56:03.981Z,4.13
2022-07-31T21:58:31.823Z,3.58
2022-07-31T22:00:59.590Z,3.33
2022-07-31T22:03:27.513Z,16.08
2022-07-31T22:06:14.257Z,15.85
2022-07-31T22:08:42.836Z,6.05
2022-07-31T22:11:10.634Z,4.93
2022-07-31T22:13:38.502Z,6.13
2022-07-31T22:16:07.080Z,4.53
2022-07-31T22:18:36.149Z,2.03
2022-07-31T22:21:07.491Z,10.90
2022-07-31T22:23:36.593Z,2.55
2022-07-31T22:26:04.860Z,4.53
2022-07-31T22:28:33.485Z,5.50
2022-07-31T22:31:02.111Z,3.65
2022-07-31T22:33:30.134Z,3.40
2022-07-31T22:36:02.713Z,2.17
2022-07-31T22:38:30.914Z,2.60
2022-07-31T22:40:59.973Z,2.78
2022-07-31T22:44:14.094Z,2.78
2022-07-31T22:46:17.340Z,2.13
2022-07-31T22:48:46.070Z,2.92
2022-07-31T22:51:14.803Z,1.40
2022-07-31T22:53:44.476Z,2.85
2022-07-31T22:56:18.268Z,2.22
2022-07-31T22:58:46.833Z,1.80
2022-07-31T23:01:14.992Z,1.90
2022-07-31T23:03:42.799Z,1.55
2022-07-31T23:06:30.084Z,1.70
2022-07-31T23:08:59.175Z,1.70
2022-07-31T23:11:27.782Z,1.58
2022-07-31T23:13:55.808Z,1.58
2022-07-31T23:16:23.611Z,1.90
2022-07-31T23:18:52.181Z,1.95
2022-07-31T23:21:19.997Z,1.88
2022-07-31T23:23:49.628Z,1.17
2022-07-31T23:26:19.873Z,2.97
2022-07-31T23:28:48.186Z,1.67
2022-07-31T23:31:16.345Z,1.50
2022-07-31T23:33:45.008Z,2.05
2022-07-31T23:36:14.485Z,1.88
2022-07-31T23:38:43.740Z,1.80
2022-07-31T23:41:12.521Z,2.50
2022-07-31T23:43:40.712Z,2.53
2022-07-31T23:46:16.119Z,1.90
2022-07-31T23:48:45.148Z,1.67
2022-07-31T23:51:12.868Z,2.20
2022-07-31T23:53:41.209Z,2.47
2022-07-31T23:56:13.211Z,2.15
2022-07-31T23:58:47.643Z,2.17
